Oak Island, North Carolina
Current Conditions -  °F | °C
As of 9:15 AM on Friday 24 Oct 2014 (Local Time) from KSUT Reporting Station
Clear Clear  
Wind Chill: 50°   Ceiling: Unl
Heat Index: 50°   Visibility: 10mi
Dew Point: 44°   Wind: 7mph
Humidity: 81%   Direction: 360°N
Pressure: 30.05"   Gusts: NA
Location:  33.92°N, 78.16°W
Report Text: KSUT 241315Z AUTO 36006KT 10SM CLR 10/07 A3005 RMK AO2 T01010069
Loading
Personal Weather Stations






























Interactive Weather Map
Tropical Storm Tracking
New forecast layout! Learn more

10-Day Weather Forecast

Advertisements
Track Severe Weather on mobile